KATW/ATW METAR and TAF weather

Enter ICAO airport designator
Station Type Date Time Source
KATW METAR 2019/06/18 12:45 UTC NOAA

KATW 181245Z 00000KT 10SM SCT080 OVC110 16/13 A2994


Station Type Date Time Source
KATW Decoded METAR 2019/06/18 12:45 UTC NOAA

Appleton / Outagamie, WI, United States (KATW) 44-15N 088-31W
Jun 18, 2019 - 08:45 AM EDT / 2019.06.18 1245 UTC
Wind: Calm:0
Visibility: 10 mile(s):0
Sky conditions: overcast
Temperature: 60 F (16 C)
Dew Point: 55 F (13 C)
Relative Humidity: 82%
Pressure (altimeter): 29.94 in. Hg (1013 hPa)
ob: KATW 181245Z 00000KT 10SM SCT080 OVC110 16/13 A2994
cycle: 13

Station Type Date Time Source
KATW TAF 2019/06/18 12:36 UTC NOAA

TAF KATW 181134Z 1812/1912 22004KT P6SM VCSH BKN060
FM181500 24006KT P6SM -SHRA BKN035
FM182000 24008KT P6SM -TSRA BKN035CB
FM182300 32005KT P6SM VCSH BKN035
FM190200 36005KT P6SM BKN050
FM190900 03006KT P6SM BKN012

Example: see airport list